createdAt,value
2023-01-04T00:01:59.960Z,9.78
2023-01-04T00:04:28.864Z,10.15
2023-01-04T00:06:56.805Z,10.06
2023-01-04T00:09:24.242Z,10.02
2023-01-04T00:11:51.717Z,10.08
2023-01-04T00:14:19.489Z,10.56
2023-01-04T00:16:47.035Z,10.55
2023-01-04T00:19:14.506Z,10.49
2023-01-04T00:21:43.867Z,9.97
2023-01-04T00:24:11.326Z,10.32
2023-01-04T00:26:38.845Z,10.60
2023-01-04T00:29:07.341Z,10.10
2023-01-04T00:31:35.159Z,10.29
2023-01-04T00:34:03.708Z,10.23
2023-01-04T00:36:31.570Z,10.10
2023-01-04T00:39:11.270Z,10.45
2023-01-04T00:44:27.089Z,10.07
2023-01-04T00:46:54.578Z,10.13
2023-01-04T00:49:22.131Z,10.38
2023-01-04T00:51:49.710Z,10.35
2023-01-04T00:54:18.829Z,10.02
2023-01-04T00:56:46.475Z,10.40
2023-01-04T00:59:14.661Z,10.19
2023-01-04T01:01:42.531Z,10.13
2023-01-04T01:04:11.517Z,10.10
2023-01-04T01:06:39.156Z,9.79
2023-01-04T01:09:06.729Z,9.68
2023-01-04T01:11:36.640Z,10.20
2023-01-04T01:14:05.888Z,9.95
2023-01-04T01:19:21.103Z,9.79
2023-01-04T01:21:48.674Z,10.08
2023-01-04T01:24:16.975Z,10.05
2023-01-04T01:26:45.819Z,10.13
2023-01-04T01:29:13.336Z,9.70
2023-01-04T01:31:41.167Z,9.78
2023-01-04T01:34:08.784Z,9.41
2023-01-04T01:36:36.257Z,10.17
2023-01-04T01:39:03.887Z,9.44
2023-01-04T01:41:32.396Z,10.00
2023-01-04T01:44:02.020Z,9.97
2023-01-04T01:46:30.349Z,9.99
2023-01-04T01:48:59.208Z,9.46
2023-01-04T01:51:26.777Z,10.00
2023-01-04T01:53:55.233Z,9.95
2023-01-04T01:56:22.751Z,10.29
2023-01-04T01:58:51.990Z,9.78
2023-01-04T02:01:20.999Z,9.84
2023-01-04T02:03:48.785Z,9.73
2023-01-04T02:06:19.233Z,10.06
2023-01-04T02:08:46.769Z,9.88
2023-01-04T02:11:14.286Z,9.84
2023-01-04T02:13:59.450Z,9.89
2023-01-04T02:16:31.436Z,10.39
2023-01-04T02:19:02.214Z,10.03
2023-01-04T02:21:30.364Z,9.87
2023-01-04T02:24:16.341Z,9.71
2023-01-04T02:26:47.757Z,10.14
2023-01-04T02:29:26.491Z,9.92
2023-01-04T02:31:55.960Z,10.10
2023-01-04T02:34:25.239Z,10.06
2023-01-04T02:36:55.179Z,10.38
2023-01-04T02:39:25.630Z,10.17
2023-01-04T02:41:53.634Z,10.05
2023-01-04T02:44:43.045Z,9.90
2023-01-04T02:47:12.691Z,10.18
2023-01-04T02:50:04.536Z,9.60
2023-01-04T02:52:33.158Z,9.87
2023-01-04T02:55:00.652Z,10.37
2023-01-04T02:57:33.116Z,10.38
2023-01-04T03:00:07.051Z,10.30
2023-01-04T03:03:10.044Z,10.58
2023-01-04T03:05:58.080Z,10.14
2023-01-04T03:08:28.259Z,10.55
2023-01-04T03:10:57.029Z,10.11
2023-01-04T03:13:25.257Z,10.57
2023-01-04T03:15:53.942Z,10.48
2023-01-04T03:18:22.192Z,10.40
2023-01-04T03:20:51.054Z,10.68
2023-01-04T03:23:36.662Z,10.56
2023-01-04T03:26:22.643Z,10.65
2023-01-04T03:29:08.053Z,10.56
2023-01-04T03:31:53.596Z,10.39
2023-01-04T03:34:38.875Z,10.47
2023-01-04T03:37:09.389Z,11.11
2023-01-04T03:39:57.712Z,10.92
2023-01-04T03:42:45.334Z,10.77
2023-01-04T03:45:32.349Z,11.01
2023-01-04T03:48:19.662Z,10.53
2023-01-04T03:50:48.909Z,10.80
2023-01-04T03:53:17.750Z,10.85
2023-01-04T03:55:45.234Z,10.60
2023-01-04T03:58:12.735Z,11.00
2023-01-04T04:00:40.272Z,10.69
2023-01-04T04:03:08.336Z,11.18
2023-01-04T04:05:54.260Z,11.13
2023-01-04T04:08:29.157Z,11.21
2023-01-04T04:10:57.874Z,10.72
2023-01-04T04:13:25.444Z,11.43
2023-01-04T04:15:53.835Z,11.28
2023-01-04T04:18:21.441Z,11.04
2023-01-04T04:20:48.988Z,10.80
2023-01-04T04:23:16.463Z,11.21
2023-01-04T04:25:45.291Z,11.38
2023-01-04T04:28:12.834Z,11.61
2023-01-04T04:30:40.693Z,11.33
2023-01-04T04:33:08.236Z,11.18
2023-01-04T04:35:35.706Z,10.51
2023-01-04T04:38:03.168Z,11.41
2023-01-04T04:40:48.268Z,10.92
2023-01-04T04:43:17.144Z,11.01
2023-01-04T04:45:44.711Z,10.97
2023-01-04T04:48:12.335Z,11.40
2023-01-04T04:50:39.878Z,11.47
2023-01-04T04:53:07.448Z,11.15
2023-01-04T04:55:34.890Z,11.09
2023-01-04T04:58:02.427Z,11.68
2023-01-04T05:00:31.247Z,11.51
2023-01-04T05:02:59.413Z,11.59
2023-01-04T05:05:26.990Z,12.04
2023-01-04T05:07:54.830Z,12.04
2023-01-04T05:10:22.339Z,11.57
2023-01-04T05:13:00.637Z,11.71
2023-01-04T05:15:28.606Z,11.73
2023-01-04T05:17:57.422Z,11.17
2023-01-04T05:20:25.242Z,11.66
2023-01-04T05:22:52.757Z,11.47
2023-01-04T05:25:20.353Z,11.87
2023-01-04T05:27:47.877Z,11.52
2023-01-04T05:30:33.639Z,11.68
2023-01-04T05:33:02.511Z,12.01
2023-01-04T05:35:30.116Z,11.74
2023-01-04T05:37:57.696Z,11.24
2023-01-04T05:40:25.282Z,11.54
2023-01-04T05:42:52.782Z,11.96
2023-01-04T05:45:21.108Z,11.82
2023-01-04T05:47:50.138Z,12.10
2023-01-04T05:50:19.354Z,12.03
2023-01-04T05:52:47.076Z,11.92
2023-01-04T05:55:14.659Z,11.91
2023-01-04T05:57:42.128Z,12.08
2023-01-04T06:00:10.257Z,12.03
2023-01-04T06:02:38.029Z,12.20
2023-01-04T06:05:06.324Z,11.65
2023-01-04T06:07:35.138Z,11.38
2023-01-04T06:10:02.682Z,12.00
2023-01-04T06:12:30.158Z,12.19
2023-01-04T06:14:57.651Z,12.13
2023-01-04T06:17:25.192Z,12.66
2023-01-04T06:19:52.680Z,12.47
2023-01-04T06:22:20.304Z,11.47
2023-01-04T06:24:49.157Z,11.95
2023-01-04T06:27:16.617Z,11.55
2023-01-04T06:29:44.077Z,11.86
2023-01-04T06:32:11.627Z,12.07
2023-01-04T06:34:39.146Z,12.10
2023-01-04T06:37:06.842Z,12.27
2023-01-04T06:39:34.314Z,11.99
2023-01-04T06:42:06.646Z,12.40
2023-01-04T06:44:34.780Z,12.05
2023-01-04T06:47:02.265Z,12.18
2023-01-04T06:49:29.760Z,12.52
2023-01-04T06:51:57.299Z,12.05
2023-01-04T06:54:24.815Z,11.81
2023-01-04T06:56:52.306Z,12.21
2023-01-04T06:59:21.194Z,12.39
2023-01-04T07:01:48.792Z,12.59
2023-01-04T07:04:16.360Z,12.25
2023-01-04T07:06:43.980Z,12.61
2023-01-04T07:09:11.539Z,12.57
2023-01-04T07:11:39.038Z,12.59
2023-01-04T07:14:06.572Z,12.17
2023-01-04T07:16:35.494Z,12.65
2023-01-04T07:19:03.065Z,12.02
2023-01-04T07:21:30.589Z,11.66
2023-01-04T07:23:58.133Z,11.91
2023-01-04T07:26:25.727Z,12.32
2023-01-04T07:29:10.553Z,11.86
2023-01-04T07:31:39.551Z,12.40
2023-01-04T07:34:07.159Z,12.64
2023-01-04T07:36:34.716Z,12.29
2023-01-04T07:39:02.314Z,12.23
2023-01-04T07:41:29.796Z,12.17
2023-01-04T07:43:57.279Z,12.29
2023-01-04T07:46:24.884Z,12.66
2023-01-04T07:48:53.762Z,12.42
2023-01-04T07:51:21.265Z,12.21
2023-01-04T07:53:48.728Z,12.51
2023-01-04T07:56:18.881Z,12.50
2023-01-04T07:58:46.673Z,12.35
2023-01-04T08:01:15.099Z,12.21
2023-01-04T08:03:42.931Z,12.38
2023-01-04T08:06:12.602Z,12.75
2023-01-04T08:08:40.143Z,12.32
2023-01-04T08:11:08.336Z,12.37
2023-01-04T08:13:36.052Z,12.98
2023-01-04T08:16:03.744Z,12.52
2023-01-04T08:18:31.478Z,12.97
2023-01-04T08:21:02.656Z,12.52
2023-01-04T08:23:31.573Z,12.80
2023-01-04T08:26:03.040Z,12.80
2023-01-04T08:28:30.546Z,12.59
2023-01-04T08:30:58.129Z,12.86
2023-01-04T08:33:25.672Z,12.61
2023-01-04T08:35:53.271Z,12.86
2023-01-04T08:38:58.318Z,12.45
2023-01-04T08:41:39.248Z,12.74
2023-01-04T08:43:57.149Z,12.45
2023-01-04T08:46:24.751Z,12.61
2023-01-04T08:48:52.456Z,12.87
2023-01-04T08:51:19.937Z,12.81
2023-01-04T08:53:47.441Z,12.81
2023-01-04T08:56:16.244Z,12.31
2023-01-04T08:58:43.830Z,12.92
2023-01-04T09:01:12.179Z,13.23
2023-01-04T09:03:39.802Z,13.48
2023-01-04T09:06:08.680Z,13.25
2023-01-04T09:08:36.663Z,12.92
2023-01-04T09:11:07.548Z,13.46
2023-01-04T09:13:37.071Z,12.87
2023-01-04T09:16:05.059Z,12.31
2023-01-04T09:18:33.151Z,12.84
2023-01-04T09:21:01.534Z,12.63
2023-01-04T09:23:30.478Z,12.81
2023-01-04T09:25:57.985Z,12.90
2023-01-04T09:28:25.507Z,12.66
2023-01-04T09:30:54.452Z,12.05
2023-01-04T09:33:35.773Z,12.63
2023-01-04T09:36:09.523Z,13.26
2023-01-04T09:38:37.147Z,12.85
2023-01-04T09:41:07.063Z,13.00
2023-01-04T09:43:36.160Z,12.99
2023-01-04T09:46:07.197Z,13.19
2023-01-04T09:48:34.719Z,12.96
2023-01-04T09:51:02.694Z,13.47
2023-01-04T09:53:31.031Z,13.01
2023-01-04T09:56:00.432Z,13.40
2023-01-04T09:58:28.524Z,12.89
2023-01-04T10:00:58.738Z,12.86
2023-01-04T10:03:29.551Z,13.35
2023-01-04T10:05:57.226Z,12.89
2023-01-04T10:08:24.795Z,13.15
2023-01-04T10:10:53.603Z,13.12
2023-01-04T10:13:25.645Z,13.05
2023-01-04T10:15:53.900Z,13.35
2023-01-04T10:21:32.208Z,13.03
2023-01-04T10:24:08.674Z,13.36
2023-01-04T10:26:38.129Z,13.72
2023-01-04T10:29:26.907Z,13.22
2023-01-04T10:31:54.870Z,13.15
2023-01-04T10:34:24.379Z,13.57
2023-01-04T10:36:55.250Z,13.00
2023-01-04T10:39:27.096Z,12.57
2023-01-04T10:42:00.196Z,13.29
2023-01-04T10:44:29.140Z,13.06
2023-01-04T10:46:58.844Z,12.79
2023-01-04T10:49:28.892Z,13.19
2023-01-04T10:51:58.131Z,12.85
2023-01-04T10:54:27.214Z,13.27
2023-01-04T10:56:57.255Z,13.15
2023-01-04T10:59:26.678Z,13.22
2023-01-04T11:01:55.340Z,12.74
2023-01-04T11:04:24.245Z,12.96
2023-01-04T11:06:53.880Z,13.05
2023-01-04T11:09:25.685Z,13.52
2023-01-04T11:11:54.146Z,12.94
2023-01-04T11:14:22.092Z,13.01
2023-01-04T11:16:50.004Z,12.90
2023-01-04T11:19:17.617Z,13.58
2023-01-04T11:21:46.234Z,13.73
2023-01-04T11:24:31.408Z,13.35
2023-01-04T11:27:03.296Z,13.40
2023-01-04T11:29:31.848Z,13.46
2023-01-04T11:32:01.403Z,13.41
2023-01-04T11:34:44.767Z,12.91
2023-01-04T11:37:24.564Z,13.14
2023-01-04T11:39:52.093Z,13.67
2023-01-04T11:42:22.159Z,13.54
2023-01-04T11:44:58.862Z,13.26
2023-01-04T11:47:29.857Z,13.27
2023-01-04T11:50:00.643Z,13.19
2023-01-04T11:52:31.742Z,13.44
2023-01-04T11:55:02.089Z,13.73
2023-01-04T11:57:30.949Z,13.82
2023-01-04T12:00:08.602Z,13.50
2023-01-04T12:03:00.188Z,13.99
2023-01-04T12:05:30.078Z,13.89
2023-01-04T12:07:58.259Z,13.65
2023-01-04T12:10:27.596Z,13.78
2023-01-04T12:12:56.988Z,13.25
2023-01-04T12:15:26.726Z,13.25
2023-01-04T12:17:55.097Z,13.70
2023-01-04T12:20:22.712Z,13.92
2023-01-04T12:22:50.244Z,13.44
2023-01-04T12:25:23.234Z,13.90
2023-01-04T12:27:51.534Z,13.62
2023-01-04T12:33:30.783Z,13.67
2023-01-04T12:36:03.525Z,13.12
2023-01-04T12:38:49.856Z,13.40
2023-01-04T12:41:17.372Z,13.68
2023-01-04T12:43:47.197Z,14.01
2023-01-04T12:46:50.911Z,13.57
2023-01-04T12:49:37.353Z,13.73
2023-01-04T12:52:43.004Z,13.15
2023-01-04T12:55:28.574Z,13.71
2023-01-04T12:57:56.090Z,13.39
2023-01-04T13:00:23.770Z,13.25
2023-01-04T13:03:23.634Z,13.46
2023-01-04T13:05:56.513Z,12.57
2023-01-04T13:08:25.036Z,12.97
2023-01-04T13:10:55.151Z,13.73
2023-01-04T13:13:25.942Z,12.75
2023-01-04T13:15:55.375Z,12.89
2023-01-04T13:18:34.507Z,13.14
2023-01-04T13:21:02.361Z,13.15
2023-01-04T13:23:29.925Z,12.76
2023-01-04T13:25:58.811Z,13.32
2023-01-04T13:28:26.334Z,13.38
2023-01-04T13:30:58.432Z,13.19
2023-01-04T13:33:27.706Z,13.28
2023-01-04T13:36:00.797Z,13.21
2023-01-04T13:38:28.356Z,13.24
2023-01-04T13:40:55.945Z,13.16
2023-01-04T13:43:38.563Z,13.29
2023-01-04T13:46:14.708Z,13.27
2023-01-04T13:48:42.821Z,13.50
2023-01-04T13:51:14.972Z,13.10
2023-01-04T13:53:42.536Z,13.04
2023-01-04T13:56:17.996Z,13.28
2023-01-04T13:58:46.879Z,13.51
2023-01-04T14:01:15.616Z,13.76
2023-01-04T14:03:43.392Z,13.90
2023-01-04T14:06:15.742Z,14.01
2023-01-04T14:08:43.799Z,13.54
2023-01-04T14:11:35.946Z,13.79
2023-01-04T14:14:04.879Z,13.58
2023-01-04T14:16:32.325Z,13.37
2023-01-04T14:18:59.937Z,13.54
2023-01-04T14:21:34.922Z,13.87
2023-01-04T14:24:02.463Z,13.28
2023-01-04T14:26:30.658Z,13.33
2023-01-04T14:28:58.159Z,13.47
2023-01-04T14:31:31.506Z,13.61
2023-01-04T14:33:59.132Z,13.76
2023-01-04T14:36:28.193Z,13.56
2023-01-04T14:38:57.233Z,13.31
2023-01-04T14:41:25.494Z,13.75
2023-01-04T14:43:54.505Z,13.99
2023-01-04T14:46:22.301Z,13.38
2023-01-04T14:48:51.311Z,13.36
2023-01-04T14:51:20.481Z,13.73
2023-01-04T14:53:48.241Z,13.59
2023-01-04T14:56:17.248Z,13.41
2023-01-04T14:58:45.543Z,13.46
2023-01-04T15:01:13.892Z,13.33
2023-01-04T15:03:41.713Z,13.40
2023-01-04T15:06:11.543Z,13.64
2023-01-04T15:08:39.292Z,13.50
2023-01-04T15:11:07.255Z,13.24
2023-01-04T15:13:39.778Z,13.71
2023-01-04T15:16:08.788Z,13.66
2023-01-04T15:18:36.424Z,13.31
2023-01-04T15:21:04.477Z,13.92
2023-01-04T15:23:33.944Z,13.84
2023-01-04T15:26:02.020Z,13.18
2023-01-04T15:28:29.679Z,13.75
2023-01-04T15:30:57.505Z,13.79
2023-01-04T15:33:25.186Z,13.92
2023-01-04T15:35:59.831Z,13.05
2023-01-04T15:38:27.529Z,13.45
2023-01-04T15:41:02.704Z,13.68
2023-01-04T15:43:35.758Z,13.24
2023-01-04T15:46:07.299Z,13.46
2023-01-04T15:48:35.611Z,13.35
2023-01-04T15:51:04.736Z,13.30
2023-01-04T15:53:32.411Z,13.13
2023-01-04T15:56:09.393Z,13.44
2023-01-04T15:58:37.177Z,13.37
2023-01-04T16:01:09.660Z,13.22
2023-01-04T16:03:37.478Z,13.33
2023-01-04T16:06:06.703Z,13.41
2023-01-04T16:08:34.401Z,13.70
2023-01-04T16:11:11.031Z,13.21
2023-01-04T16:13:38.932Z,13.28
2023-01-04T16:16:07.700Z,13.41
2023-01-04T16:18:35.915Z,13.22
2023-01-04T16:21:07.046Z,13.48
2023-01-04T16:23:34.740Z,13.21
2023-01-04T16:26:06.430Z,12.95
2023-01-04T16:28:35.530Z,13.12
2023-01-04T16:31:03.315Z,13.78
2023-01-04T16:33:30.885Z,13.88
2023-01-04T16:36:01.732Z,13.28
2023-01-04T16:38:29.204Z,13.80
2023-01-04T16:40:57.692Z,13.24
2023-01-04T16:43:25.252Z,13.53
2023-01-04T16:45:54.379Z,13.18
2023-01-04T16:48:21.946Z,13.71
2023-01-04T16:50:49.475Z,13.51
2023-01-04T16:53:16.975Z,13.28
2023-01-04T16:55:44.479Z,13.23
2023-01-04T16:58:12.041Z,13.09
2023-01-04T17:00:39.613Z,13.06
2023-01-04T17:03:08.585Z,12.93
2023-01-04T17:05:39.640Z,13.39
2023-01-04T17:08:07.177Z,13.03
2023-01-04T17:10:34.883Z,13.49
2023-01-04T17:13:02.453Z,13.00
2023-01-04T17:15:45.327Z,13.31
2023-01-04T17:18:15.242Z,13.46
2023-01-04T17:20:42.778Z,13.22
2023-01-04T17:23:10.272Z,13.41
2023-01-04T17:25:37.786Z,13.29
2023-01-04T17:28:05.454Z,13.65
2023-01-04T17:30:32.960Z,13.43
2023-01-04T17:33:00.452Z,13.15
2023-01-04T17:35:29.312Z,13.57
2023-01-04T17:37:56.880Z,13.35
2023-01-04T17:40:24.449Z,12.93
2023-01-04T17:42:52.132Z,13.24
2023-01-04T17:45:19.623Z,13.58
2023-01-04T17:47:47.101Z,13.59
2023-01-04T17:50:15.757Z,12.74
2023-01-04T17:52:45.034Z,13.42
2023-01-04T17:55:12.494Z,13.36
2023-01-04T17:57:40.104Z,13.46
2023-01-04T18:00:08.275Z,13.09
2023-01-04T18:02:36.281Z,13.33
2023-01-04T18:05:05.825Z,13.32
2023-01-04T18:07:33.756Z,12.98
2023-01-04T18:10:02.590Z,13.22
2023-01-04T18:12:31.053Z,12.80
2023-01-04T18:14:58.518Z,13.26
2023-01-04T18:17:26.055Z,12.90
2023-01-04T18:19:53.555Z,13.22
2023-01-04T18:22:21.095Z,12.92
2023-01-04T18:24:48.685Z,12.69
2023-01-04T18:27:26.197Z,12.58
2023-01-04T18:29:54.391Z,13.06
2023-01-04T18:32:22.012Z,12.81
2023-01-04T18:34:49.485Z,13.20
2023-01-04T18:37:18.810Z,12.67
2023-01-04T18:39:46.925Z,12.62
2023-01-04T18:42:14.458Z,12.89
2023-01-04T18:44:48.291Z,12.60
2023-01-04T18:47:16.406Z,13.03
2023-01-04T18:49:43.898Z,12.48
2023-01-04T18:52:11.418Z,12.77
2023-01-04T18:54:38.969Z,12.84
2023-01-04T18:57:06.476Z,13.19
2023-01-04T18:59:34.219Z,12.61
2023-01-04T19:02:03.762Z,12.82
2023-01-04T19:04:32.133Z,12.57
2023-01-04T19:06:59.739Z,12.56
2023-01-04T19:09:27.221Z,12.61
2023-01-04T19:11:54.686Z,12.48
2023-01-04T19:14:22.290Z,12.54
2023-01-04T19:16:49.890Z,12.56
2023-01-04T19:19:18.822Z,12.38
2023-01-04T19:21:46.390Z,12.66
2023-01-04T19:24:13.890Z,12.46
2023-01-04T19:26:41.352Z,12.64
2023-01-04T19:29:08.948Z,12.60
2023-01-04T19:31:36.455Z,12.28
2023-01-04T19:34:03.969Z,12.70
2023-01-04T19:36:32.843Z,12.83
2023-01-04T19:39:04.110Z,12.84
2023-01-04T19:41:34.428Z,12.91
2023-01-04T19:44:02.454Z,12.88
2023-01-04T19:46:30.446Z,12.76
2023-01-04T19:48:58.135Z,12.33
2023-01-04T19:51:27.817Z,12.25
2023-01-04T19:53:56.919Z,12.73
2023-01-04T19:56:24.484Z,12.31
2023-01-04T19:58:51.974Z,12.87
2023-01-04T20:01:20.190Z,12.02
2023-01-04T20:03:48.007Z,12.52
2023-01-04T20:06:15.995Z,12.42
2023-01-04T20:08:43.610Z,12.09
2023-01-04T20:11:12.525Z,11.82
2023-01-04T20:13:40.240Z,11.87
2023-01-04T20:16:08.329Z,12.34
2023-01-04T20:18:36.271Z,12.00
2023-01-04T20:21:03.787Z,12.12
2023-01-04T20:23:31.715Z,12.20
2023-01-04T20:25:59.276Z,12.40
2023-01-04T20:28:28.085Z,12.25
2023-01-04T20:31:02.295Z,12.22
2023-01-04T20:33:29.992Z,11.89
2023-01-04T20:35:57.562Z,11.91
2023-01-04T20:38:25.123Z,11.82
2023-01-04T20:40:52.628Z,12.03
2023-01-04T20:43:36.235Z,11.89
2023-01-04T20:46:06.266Z,11.57
2023-01-04T20:48:33.868Z,11.66
2023-01-04T20:51:06.015Z,11.91
2023-01-04T20:53:33.519Z,12.12
2023-01-04T20:56:05.049Z,12.30
2023-01-04T20:58:32.559Z,12.12
2023-01-04T21:01:02.469Z,12.48
2023-01-04T21:03:31.748Z,12.11
2023-01-04T21:06:00.908Z,12.04
2023-01-04T21:08:28.371Z,12.10
2023-01-04T21:10:55.961Z,12.38
2023-01-04T21:13:23.743Z,12.13
2023-01-04T21:15:51.429Z,11.96
2023-01-04T21:18:18.898Z,12.01
2023-01-04T21:20:47.947Z,12.14
2023-01-04T21:23:16.129Z,11.77
2023-01-04T21:25:43.869Z,12.03
2023-01-04T21:28:11.689Z,11.95
2023-01-04T21:30:39.731Z,11.99
2023-01-04T21:33:07.457Z,12.32
2023-01-04T21:35:34.963Z,12.00
2023-01-04T21:38:03.943Z,12.40
2023-01-04T21:40:31.705Z,12.21
2023-01-04T21:42:59.281Z,12.19
2023-01-04T21:45:26.919Z,12.01
2023-01-04T21:47:55.055Z,11.56
2023-01-04T21:50:22.549Z,11.95
2023-01-04T21:52:50.047Z,12.12
2023-01-04T21:55:18.983Z,11.64
2023-01-04T21:57:46.527Z,12.15
2023-01-04T22:00:14.294Z,12.48
2023-01-04T22:02:41.968Z,12.04
2023-01-04T22:05:09.783Z,11.98
2023-01-04T22:07:37.323Z,11.80
2023-01-04T22:10:05.117Z,12.18
2023-01-04T22:12:33.966Z,12.18
2023-01-04T22:15:01.525Z,11.62
2023-01-04T22:17:29.153Z,12.01
2023-01-04T22:19:56.683Z,11.68
2023-01-04T22:22:24.191Z,12.09
2023-01-04T22:24:51.987Z,12.02
2023-01-04T22:27:19.423Z,12.09
2023-01-04T22:29:48.243Z,11.50
2023-01-04T22:32:15.708Z,11.70
2023-01-04T22:34:43.160Z,11.73
2023-01-04T22:37:10.659Z,11.71
2023-01-04T22:39:38.169Z,11.68
2023-01-04T22:42:05.748Z,12.06
2023-01-04T22:44:33.300Z,11.85
2023-01-04T22:47:02.234Z,11.97
2023-01-04T22:49:29.884Z,11.91
2023-01-04T22:51:57.651Z,12.10
2023-01-04T22:54:25.160Z,11.66
2023-01-04T22:56:52.643Z,11.80
2023-01-04T22:59:20.160Z,11.79
2023-01-04T23:01:47.780Z,11.54
2023-01-04T23:04:17.059Z,12.11
2023-01-04T23:06:44.671Z,11.76
2023-01-04T23:09:13.065Z,11.60
2023-01-04T23:11:41.037Z,11.71
2023-01-04T23:14:09.893Z,11.83
2023-01-04T23:16:37.536Z,11.71
2023-01-04T23:19:05.937Z,12.31
2023-01-04T23:21:35.087Z,11.79
2023-01-04T23:24:02.759Z,12.07
2023-01-04T23:26:30.872Z,11.60
2023-01-04T23:28:58.421Z,11.46
2023-01-04T23:31:26.746Z,12.05
2023-01-04T23:33:55.106Z,11.52
2023-01-04T23:36:23.179Z,11.67
2023-01-04T23:38:52.674Z,11.75
2023-01-04T23:41:20.239Z,11.50
2023-01-04T23:43:47.768Z,11.82
2023-01-04T23:46:15.799Z,11.41
2023-01-04T23:48:43.636Z,11.40
2023-01-04T23:51:11.307Z,11.40
2023-01-04T23:53:38.814Z,11.68
2023-01-04T23:56:08.677Z,11.65
2023-01-04T23:58:36.174Z,11.56
